createdAt,value
2019-06-07T00:01:35.381Z,8.13
2019-06-07T00:04:23.001Z,8.33
2019-06-07T00:07:12.592Z,9.47
2019-06-07T00:10:00.618Z,8.43
2019-06-07T00:12:48.569Z,8.47
2019-06-07T00:15:36.153Z,8.50
2019-06-07T00:18:26.176Z,8.70
2019-06-07T00:21:14.445Z,8.00
2019-06-07T00:24:02.630Z,9.10
2019-06-07T00:26:58.247Z,8.83
2019-06-07T00:29:40.533Z,8.30
2019-06-07T00:32:28.267Z,9.27
2019-06-07T00:35:20.267Z,9.03
2019-06-07T00:38:05.722Z,8.27
2019-06-07T00:40:53.544Z,8.37
2019-06-07T00:43:41.337Z,8.87
2019-06-07T00:46:29.270Z,9.33
2019-06-07T00:49:32.331Z,8.37
2019-06-07T00:52:06.774Z,7.90
2019-06-07T00:54:54.396Z,8.13
2019-06-07T00:57:42.407Z,7.97
2019-06-07T01:00:29.989Z,8.33
2019-06-07T01:03:20.480Z,8.87
2019-06-07T01:06:07.664Z,8.77
2019-06-07T01:08:55.422Z,8.60
2019-06-07T01:11:43.082Z,8.10
2019-06-07T01:14:31.045Z,9.17
2019-06-07T01:17:43.557Z,8.90
2019-06-07T01:20:23.812Z,8.30
2019-06-07T01:23:51.803Z,8.53
2019-06-07T01:25:59.210Z,8.77
2019-06-07T01:28:47.401Z,8.90
2019-06-07T01:31:34.970Z,8.70
2019-06-07T01:34:25.681Z,9.40
2019-06-07T01:37:12.420Z,9.23
2019-06-07T01:40:00.187Z,9.17
2019-06-07T01:42:48.071Z,8.97
2019-06-07T01:45:36.010Z,9.27
2019-06-07T01:48:29.574Z,9.60
2019-06-07T01:51:14.025Z,10.03
2019-06-07T01:54:48.532Z,10.20
2019-06-07T01:56:52.307Z,9.73
2019-06-07T01:59:40.297Z,9.70
2019-06-07T02:02:30.016Z,9.60
2019-06-07T02:05:19.655Z,9.50
2019-06-07T02:08:08.846Z,10.47
2019-06-07T02:10:56.865Z,10.63
2019-06-07T02:13:44.813Z,9.77
2019-06-07T02:16:32.712Z,9.10
2019-06-07T02:19:22.042Z,9.27
2019-06-07T02:22:10.133Z,8.53
2019-06-07T02:25:34.652Z,8.80
2019-06-07T02:27:47.462Z,8.93
2019-06-07T02:30:44.047Z,8.67
2019-06-07T02:33:28.971Z,8.77
2019-06-07T02:36:14.294Z,8.87
2019-06-07T02:39:02.118Z,8.47
2019-06-07T02:41:50.167Z,9.40
2019-06-07T02:44:39.940Z,8.70
2019-06-07T02:47:31.074Z,8.30
2019-06-07T02:50:18.794Z,8.23
2019-06-07T02:53:06.457Z,8.63
2019-06-07T02:56:35.250Z,9.20
2019-06-07T02:58:43.761Z,9.47
2019-06-07T03:01:38.569Z,8.20
2019-06-07T03:04:21.205Z,8.93
2019-06-07T03:07:11.584Z,8.80
2019-06-07T03:10:00.549Z,7.30
2019-06-07T03:12:49.933Z,9.37
2019-06-07T03:15:47.725Z,8.93
2019-06-07T03:18:45.700Z,10.07
2019-06-07T03:21:36.650Z,9.37
2019-06-07T03:24:24.742Z,9.80
2019-06-07T03:30:34.963Z,9.87
2019-06-07T03:32:52.501Z,9.67
2019-06-07T03:35:40.795Z,10.33
2019-06-07T03:38:31.990Z,10.07
2019-06-07T03:41:19.157Z,9.70
2019-06-07T03:44:06.693Z,10.13
2019-06-07T03:46:54.693Z,9.87
2019-06-07T03:49:42.920Z,9.97
2019-06-07T03:52:34.996Z,10.67
2019-06-07T03:55:20.956Z,10.50
2019-06-07T04:01:01.929Z,10.40
2019-06-07T04:03:51.711Z,10.97
2019-06-07T04:06:41.976Z,10.43
2019-06-07T04:09:28.779Z,10.73
2019-06-07T04:12:17.991Z,11.57
2019-06-07T04:15:06.063Z,11.47
2019-06-07T04:18:02.071Z,11.97
2019-06-07T04:20:43.801Z,11.10
2019-06-07T04:23:34.914Z,11.00
2019-06-07T04:26:21.739Z,10.83
2019-06-07T04:29:32.539Z,11.53
2019-06-07T04:31:59.219Z,11.20
2019-06-07T04:34:47.302Z,10.67
2019-06-07T04:37:39.696Z,11.17
2019-06-07T04:40:27.851Z,10.40
2019-06-07T04:43:15.827Z,11.27
2019-06-07T04:46:04.493Z,11.77
2019-06-07T04:48:53.375Z,11.70
2019-06-07T04:51:42.950Z,11.67
2019-06-07T04:54:32.826Z,11.33
2019-06-07T04:57:20.986Z,12.73
2019-06-07T05:00:45.777Z,13.93
2019-06-07T05:02:59.895Z,13.17
2019-06-07T05:05:47.616Z,11.73
2019-06-07T05:08:36.183Z,12.27
2019-06-07T05:11:25.561Z,11.30
2019-06-07T05:14:13.049Z,10.30
2019-06-07T05:17:00.870Z,10.30
2019-06-07T05:19:48.931Z,9.57
2019-06-07T05:22:40.764Z,9.33
2019-06-07T05:25:26.459Z,8.50
2019-06-07T05:28:14.203Z,9.70
2019-06-07T05:31:05.766Z,10.23
2019-06-07T05:33:51.733Z,9.23
2019-06-07T05:36:44.148Z,9.13
2019-06-07T05:39:30.189Z,9.67
2019-06-07T05:42:19.651Z,9.93
2019-06-07T05:45:07.943Z,9.40
2019-06-07T05:47:55.746Z,9.50
2019-06-07T05:50:55.617Z,10.03
2019-06-07T05:53:32.995Z,9.90
2019-06-07T05:56:20.964Z,10.40
2019-06-07T05:59:08.869Z,11.40
2019-06-07T06:02:05.003Z,10.83
2019-06-07T06:04:49.282Z,10.37
2019-06-07T06:07:38.696Z,11.83
2019-06-07T06:10:25.081Z,10.73
2019-06-07T06:13:12.715Z,11.00
2019-06-07T06:16:02.368Z,11.90
2019-06-07T06:18:50.004Z,12.80
2019-06-07T06:21:38.514Z,12.33
2019-06-07T06:24:26.267Z,11.23
2019-06-07T06:27:41.757Z,13.03
2019-06-07T06:30:02.306Z,12.63
2019-06-07T06:32:57.549Z,12.67
2019-06-07T06:35:39.859Z,12.03
2019-06-07T06:38:27.772Z,12.27
2019-06-07T06:41:16.573Z,12.17
2019-06-07T06:44:05.833Z,10.90
2019-06-07T06:46:58.097Z,11.00
2019-06-07T06:49:44.207Z,9.77
2019-06-07T06:52:31.849Z,11.70
2019-06-07T06:55:19.734Z,11.40
2019-06-07T06:58:07.582Z,11.27
2019-06-07T07:01:05.863Z,10.53
2019-06-07T07:04:00.137Z,9.90
2019-06-07T07:06:35.177Z,10.63
2019-06-07T07:09:22.712Z,9.00
2019-06-07T07:12:12.602Z,9.63
2019-06-07T07:14:59.293Z,10.33
2019-06-07T07:17:59.363Z,9.17
2019-06-07T07:20:36.914Z,8.67
2019-06-07T07:23:24.820Z,7.30
2019-06-07T07:26:12.218Z,7.17
2019-06-07T07:28:59.762Z,6.80
2019-06-07T07:31:50.804Z,6.10
2019-06-07T07:34:37.405Z,6.20
2019-06-07T07:37:25.745Z,7.23
2019-06-07T07:40:55.516Z,6.60
2019-06-07T07:43:02.745Z,7.37
2019-06-07T07:45:57.353Z,7.07
2019-06-07T07:48:40.841Z,7.70
2019-06-07T07:51:28.554Z,6.97
2019-06-07T07:54:16.261Z,7.37
2019-06-07T07:57:03.977Z,6.77
2019-06-07T08:00:06.155Z,5.87
2019-06-07T08:02:41.793Z,6.40
2019-06-07T08:05:42.421Z,5.93
2019-06-07T08:08:19.317Z,6.60
2019-06-07T08:11:06.333Z,5.67
2019-06-07T08:13:57.360Z,6.17
2019-06-07T08:16:43.689Z,5.93
2019-06-07T08:19:31.705Z,5.00
2019-06-07T08:22:19.464Z,5.70
2019-06-07T08:25:09.246Z,6.03
2019-06-07T08:27:58.946Z,5.87
2019-06-07T08:30:50.702Z,5.27
2019-06-07T08:33:36.397Z,5.07
2019-06-07T08:36:40.815Z,5.70
2019-06-07T08:39:14.031Z,5.33
2019-06-07T08:42:15.497Z,5.40
2019-06-07T08:44:53.607Z,5.70
2019-06-07T08:47:41.076Z,5.30
2019-06-07T08:50:29.018Z,4.50
2019-06-07T08:53:16.745Z,4.50
2019-06-07T08:56:09.871Z,4.97
2019-06-07T08:58:56.873Z,4.50
2019-06-07T09:01:43.462Z,4.13
2019-06-07T09:04:31.580Z,4.20
2019-06-07T09:07:20.452Z,4.60
2019-06-07T09:10:14.765Z,4.97
2019-06-07T09:13:03.925Z,5.00
2019-06-07T09:15:47.971Z,4.70
2019-06-07T09:18:42.989Z,4.80
2019-06-07T09:21:24.526Z,4.80
2019-06-07T09:24:12.440Z,5.37
2019-06-07T09:27:03.455Z,4.80
2019-06-07T09:29:50.494Z,4.90
2019-06-07T09:32:38.009Z,4.60
2019-06-07T09:35:25.848Z,4.90
2019-06-07T09:38:24.974Z,4.53
2019-06-07T09:41:05.771Z,4.50
2019-06-07T09:44:05.224Z,4.40
2019-06-07T09:46:42.946Z,4.23
2019-06-07T09:49:32.875Z,4.40
2019-06-07T09:52:20.437Z,4.60
2019-06-07T09:55:23.111Z,4.50
2019-06-07T09:58:07.974Z,4.40
2019-06-07T10:00:47.752Z,4.00
2019-06-07T10:03:35.669Z,3.80
2019-06-07T10:06:23.412Z,3.70
2019-06-07T10:10:09.237Z,4.60
2019-06-07T10:12:02.259Z,4.10
2019-06-07T10:14:50.328Z,4.60
2019-06-07T10:17:38.180Z,3.93
2019-06-07T10:20:26.153Z,4.50
2019-06-07T10:23:13.921Z,3.60
2019-06-07T10:26:01.949Z,4.23
2019-06-07T10:28:53.294Z,4.60
2019-06-07T10:31:39.341Z,4.53
2019-06-07T10:34:26.979Z,4.53
2019-06-07T10:37:15.765Z,4.13
2019-06-07T10:40:06.850Z,4.87
2019-06-07T10:42:54.777Z,4.30
2019-06-07T10:45:42.733Z,4.47
2019-06-07T10:48:30.423Z,3.67
2019-06-07T10:51:18.588Z,4.10
2019-06-07T10:54:19.946Z,4.20
2019-06-07T10:56:56.404Z,3.87
2019-06-07T10:59:44.400Z,3.70
2019-06-07T11:02:32.426Z,3.80
2019-06-07T11:05:20.455Z,4.20
2019-06-07T11:08:08.116Z,3.70
2019-06-07T11:10:56.094Z,3.97
2019-06-07T11:13:44.170Z,3.97
2019-06-07T11:16:31.846Z,3.90
2019-06-07T11:19:19.850Z,4.10
2019-06-07T11:22:08.044Z,4.17
2019-06-07T11:24:56.049Z,4.27
2019-06-07T11:27:44.010Z,4.30
2019-06-07T11:30:31.754Z,3.80
2019-06-07T11:33:19.706Z,3.90
2019-06-07T11:36:08.461Z,3.90
2019-06-07T11:38:56.826Z,3.90
2019-06-07T11:41:44.751Z,4.23
2019-06-07T11:44:32.726Z,3.60
2019-06-07T11:47:20.418Z,3.97
2019-06-07T11:50:09.480Z,3.93
2019-06-07T11:52:57.398Z,4.00
2019-06-07T11:55:45.263Z,4.10
2019-06-07T11:58:33.262Z,4.10
2019-06-07T12:01:21.387Z,3.63
2019-06-07T12:04:09.567Z,4.00
2019-06-07T12:06:57.169Z,3.93
2019-06-07T12:09:55.821Z,4.30
2019-06-07T12:12:34.952Z,4.10
2019-06-07T12:15:22.785Z,4.00
2019-06-07T12:18:11.246Z,4.40
2019-06-07T12:20:59.208Z,3.83
2019-06-07T12:23:46.924Z,4.07
2019-06-07T12:26:34.993Z,4.03
2019-06-07T12:29:22.869Z,4.40
2019-06-07T12:32:11.254Z,3.97
2019-06-07T12:34:59.206Z,3.87
2019-06-07T12:37:47.298Z,3.97
2019-06-07T12:40:34.825Z,3.87
2019-06-07T12:43:23.326Z,4.10
2019-06-07T12:46:15.356Z,4.23
2019-06-07T12:49:01.429Z,3.97
2019-06-07T12:51:49.465Z,4.60
2019-06-07T12:54:37.307Z,4.30
2019-06-07T12:57:25.157Z,4.00
2019-06-07T13:00:14.092Z,4.03
2019-06-07T13:03:02.511Z,4.20
2019-06-07T13:05:50.230Z,4.20
2019-06-07T13:08:37.961Z,3.93
2019-06-07T13:11:29.567Z,3.90
2019-06-07T13:14:16.181Z,3.93
2019-06-07T13:17:04.040Z,4.50
2019-06-07T13:19:51.791Z,3.63
2019-06-07T13:22:39.610Z,4.20
2019-06-07T13:25:44.959Z,4.40
2019-06-07T13:28:18.503Z,3.90
2019-06-07T13:31:06.565Z,3.83
2019-06-07T13:33:54.159Z,4.47
2019-06-07T13:36:42.184Z,4.13
2019-06-07T13:39:30.195Z,4.37
2019-06-07T13:42:18.436Z,4.50
2019-06-07T13:45:07.149Z,4.00
2019-06-07T13:47:54.873Z,4.23
2019-06-07T13:50:42.604Z,4.30
2019-06-07T13:53:30.150Z,3.90
2019-06-07T13:56:18.061Z,3.90
2019-06-07T13:59:05.887Z,4.57
2019-06-07T14:01:53.850Z,4.50
2019-06-07T14:04:41.537Z,4.60
2019-06-07T14:07:30.077Z,3.60
2019-06-07T14:10:19.273Z,4.03
2019-06-07T14:13:07.701Z,4.17
2019-06-07T14:15:55.325Z,4.07
2019-06-07T14:18:42.996Z,3.70
2019-06-07T14:21:30.957Z,4.10
2019-06-07T14:24:19.089Z,4.27
2019-06-07T14:27:06.987Z,4.17
2019-06-07T14:29:54.590Z,3.90
2019-06-07T14:32:42.575Z,4.20
2019-06-07T14:35:30.947Z,4.67
2019-06-07T14:38:18.886Z,3.80
2019-06-07T14:41:07.016Z,4.20
2019-06-07T14:43:54.799Z,4.00
2019-06-07T14:46:42.855Z,4.10
2019-06-07T14:49:30.779Z,4.03
2019-06-07T14:52:18.838Z,3.73
2019-06-07T14:55:08.313Z,3.80
2019-06-07T14:57:56.223Z,4.17
2019-06-07T15:00:44.789Z,4.10
2019-06-07T15:03:34.844Z,4.00
2019-06-07T15:06:22.805Z,4.37
2019-06-07T15:09:10.741Z,4.20
2019-06-07T15:11:58.817Z,4.27
2019-06-07T15:14:46.654Z,4.23
2019-06-07T15:17:35.409Z,4.43
2019-06-07T15:20:23.567Z,4.23
2019-06-07T15:23:11.203Z,4.47
2019-06-07T15:25:58.899Z,4.00
2019-06-07T15:28:46.537Z,4.50
2019-06-07T15:31:36.311Z,4.37
2019-06-07T15:34:24.239Z,4.10
2019-06-07T15:37:12.281Z,3.97
2019-06-07T15:39:59.824Z,4.07
2019-06-07T15:42:52.960Z,4.40
2019-06-07T15:45:37.795Z,4.10
2019-06-07T15:48:26.110Z,4.40
2019-06-07T15:51:13.979Z,4.20
2019-06-07T15:54:01.856Z,4.43
2019-06-07T15:56:49.329Z,4.40
2019-06-07T15:59:37.491Z,4.23
2019-06-07T16:02:37.941Z,4.13
2019-06-07T16:05:25.473Z,4.30
2019-06-07T16:08:14.027Z,4.67
2019-06-07T16:11:02.020Z,4.67
2019-06-07T16:13:49.666Z,5.07
2019-06-07T16:16:38.925Z,5.17
2019-06-07T16:19:28.049Z,6.03
2019-06-07T16:22:16.010Z,5.40
2019-06-07T16:25:06.133Z,5.10
2019-06-07T16:27:54.069Z,5.47
2019-06-07T16:30:42.676Z,6.27
2019-06-07T16:33:30.853Z,5.90
2019-06-07T16:36:18.658Z,5.50
2019-06-07T16:39:08.628Z,5.73
2019-06-07T16:41:56.069Z,5.80
2019-06-07T16:44:44.776Z,5.07
2019-06-07T16:47:36.822Z,4.30
2019-06-07T16:50:22.766Z,3.60
2019-06-07T16:53:10.402Z,3.10
2019-06-07T16:55:58.355Z,3.57
2019-06-07T16:58:48.598Z,3.30
2019-06-07T17:01:36.933Z,2.73
2019-06-07T17:04:25.321Z,3.30
2019-06-07T17:07:13.001Z,3.30
2019-06-07T17:10:03.467Z,3.37
2019-06-07T17:12:51.437Z,2.83
2019-06-07T17:15:40.623Z,2.20
2019-06-07T17:18:28.373Z,2.70
2019-06-07T17:21:16.166Z,2.17
2019-06-07T17:24:04.402Z,2.00
2019-06-07T17:26:52.291Z,2.20
2019-06-07T17:29:41.870Z,1.97
2019-06-07T17:32:30.021Z,2.37
2019-06-07T17:35:17.994Z,1.73
2019-06-07T17:38:05.950Z,1.77
2019-06-07T17:40:53.966Z,1.77
2019-06-07T17:43:54.132Z,1.53
2019-06-07T17:46:30.896Z,1.60
2019-06-07T17:49:19.074Z,1.43
2019-06-07T17:52:07.273Z,1.60
2019-06-07T17:54:55.107Z,1.37
2019-06-07T17:57:44.268Z,1.60
2019-06-07T18:00:47.198Z,1.40
2019-06-07T18:03:35.857Z,1.50
2019-06-07T18:06:23.815Z,1.30
2019-06-07T18:09:14.061Z,1.30
2019-06-07T18:12:04.396Z,1.13
2019-06-07T18:14:52.365Z,1.20
2019-06-07T18:17:41.624Z,1.40
2019-06-07T18:20:29.316Z,1.10
2019-06-07T18:23:17.071Z,1.20
2019-06-07T18:26:07.633Z,1.00
2019-06-07T18:28:55.500Z,1.60
2019-06-07T18:31:43.730Z,1.40
2019-06-07T18:34:32.493Z,1.40
2019-06-07T18:37:20.545Z,1.00
2019-06-07T18:40:09.039Z,1.10
2019-06-07T18:46:20.956Z,1.40
2019-06-07T18:49:12.955Z,1.10
2019-06-07T18:52:18.529Z,1.23
2019-06-07T18:55:08.965Z,1.10
2019-06-07T18:57:58.505Z,1.20
2019-06-07T19:00:47.317Z,1.17
2019-06-07T19:03:35.441Z,1.10
2019-06-07T19:06:23.371Z,1.10
2019-06-07T19:09:11.814Z,1.00
2019-06-07T19:12:00.073Z,1.20
2019-06-07T19:14:49.327Z,1.20
2019-06-07T19:17:37.548Z,1.10
2019-06-07T19:20:25.831Z,1.00
2019-06-07T19:23:13.881Z,1.00
2019-06-07T19:26:01.396Z,0.80
2019-06-07T19:28:50.524Z,1.00
2019-06-07T19:31:38.692Z,1.03
2019-06-07T19:34:26.879Z,1.10
2019-06-07T19:37:15.161Z,0.80
2019-06-07T19:40:03.544Z,0.90
2019-06-07T19:42:52.168Z,0.90
2019-06-07T19:45:40.490Z,0.90
2019-06-07T19:48:28.698Z,1.30
2019-06-07T19:51:20.079Z,1.47
2019-06-07T19:54:06.018Z,0.93
2019-06-07T19:56:55.397Z,1.10
2019-06-07T19:59:43.548Z,1.10
2019-06-07T20:02:31.272Z,1.17
2019-06-07T20:05:19.282Z,1.00
2019-06-07T20:08:06.969Z,1.00
2019-06-07T20:10:56.353Z,1.00
2019-06-07T20:13:44.238Z,0.93
2019-06-07T20:16:32.112Z,1.13
2019-06-07T20:19:20.111Z,0.80
2019-06-07T20:22:09.465Z,1.20
2019-06-07T20:24:58.844Z,1.23
2019-06-07T20:27:46.857Z,1.10
2019-06-07T20:30:34.780Z,1.03
2019-06-07T20:33:22.577Z,1.30
2019-06-07T20:36:10.512Z,1.10
2019-06-07T20:38:58.122Z,1.10
2019-06-07T20:41:46.066Z,1.10
2019-06-07T20:44:33.864Z,1.30
2019-06-07T20:47:22.036Z,1.10
2019-06-07T20:50:10.294Z,1.47
2019-06-07T20:52:59.797Z,1.30
2019-06-07T20:55:48.543Z,1.10
2019-06-07T20:58:36.492Z,1.57
2019-06-07T21:01:24.908Z,1.10
2019-06-07T21:04:12.540Z,1.40
2019-06-07T21:07:01.350Z,1.30
2019-06-07T21:09:49.567Z,1.10
2019-06-07T21:12:37.745Z,1.40
2019-06-07T21:15:25.396Z,1.20
2019-06-07T21:18:19.432Z,1.30
2019-06-07T21:21:02.798Z,1.30
2019-06-07T21:23:50.650Z,1.60
2019-06-07T21:26:38.354Z,1.30
2019-06-07T21:29:26.338Z,1.50
2019-06-07T21:32:14.373Z,1.40
2019-06-07T21:35:02.170Z,1.40
2019-06-07T21:37:49.982Z,1.60
2019-06-07T21:40:37.889Z,1.40
2019-06-07T21:43:25.724Z,1.80
2019-06-07T21:46:20.324Z,1.40
2019-06-07T21:49:04.183Z,1.40
2019-06-07T21:51:52.156Z,1.40
2019-06-07T21:54:40.170Z,1.30
2019-06-07T21:57:28.068Z,1.50
2019-06-07T22:00:21.513Z,1.33
2019-06-07T22:03:09.613Z,1.30
2019-06-07T22:05:57.517Z,1.63
2019-06-07T22:08:45.331Z,1.73
2019-06-07T22:11:33.069Z,2.17
2019-06-07T22:14:20.969Z,3.10
2019-06-07T22:17:10.087Z,3.87
2019-06-07T22:19:58.353Z,4.07
2019-06-07T22:22:46.204Z,2.47
2019-06-07T22:25:34.161Z,1.83
2019-06-07T22:28:22.014Z,1.60
2019-06-07T22:31:10.737Z,2.00
2019-06-07T22:33:58.788Z,1.90
2019-06-07T22:36:46.520Z,1.60
2019-06-07T22:39:34.433Z,1.37
2019-06-07T22:42:22.165Z,1.60
2019-06-07T22:45:10.861Z,1.60
2019-06-07T22:47:59.322Z,1.33
2019-06-07T22:50:47.414Z,1.47
2019-06-07T22:53:36.905Z,1.40
2019-06-07T22:56:26.506Z,1.53
2019-06-07T22:59:18.401Z,1.60
2019-06-07T23:02:04.361Z,1.40
2019-06-07T23:04:52.525Z,1.50
2019-06-07T23:07:40.383Z,1.30
2019-06-07T23:10:28.240Z,1.47
2019-06-07T23:13:16.026Z,1.57
2019-06-07T23:16:04.801Z,1.40
2019-06-07T23:18:52.634Z,1.60
2019-06-07T23:21:40.163Z,1.50
2019-06-07T23:24:28.069Z,1.40
2019-06-07T23:27:16.453Z,1.37
2019-06-07T23:30:08.584Z,1.50
2019-06-07T23:32:56.297Z,1.40
2019-06-07T23:35:44.087Z,1.70
2019-06-07T23:38:32.076Z,1.90
2019-06-07T23:41:20.484Z,1.70
2019-06-07T23:44:11.004Z,1.50
2019-06-07T23:47:10.821Z,1.50
2019-06-07T23:49:48.542Z,1.73
2019-06-07T23:52:36.389Z,1.47
2019-06-07T23:55:24.350Z,1.60
2019-06-07T23:58:12.302Z,1.50
